createdAt,value
2018-07-23T00:03:50.447Z,16.40
2018-07-23T00:09:56.003Z,16.40
2018-07-23T00:16:01.569Z,16.40
2018-07-23T00:22:07.236Z,16.30
2018-07-23T00:28:12.831Z,16.30
2018-07-23T00:34:18.413Z,16.30
2018-07-23T00:46:29.151Z,16.30
2018-07-23T00:52:35.147Z,16.20
2018-07-23T00:58:40.748Z,16.20
2018-07-23T01:04:46.310Z,16.20
2018-07-23T01:10:51.885Z,16.10
2018-07-23T01:16:57.458Z,16.20
2018-07-23T01:23:03.013Z,16.30
2018-07-23T01:29:08.583Z,16.30
2018-07-23T01:35:14.124Z,16.40
2018-07-23T01:41:19.725Z,16.40
2018-07-23T01:47:25.301Z,16.50
2018-07-23T01:53:30.893Z,16.50
2018-07-23T01:59:36.515Z,16.60
2018-07-23T02:05:42.131Z,16.60
2018-07-23T02:11:47.734Z,16.60
2018-07-23T02:17:53.301Z,16.70
2018-07-23T02:23:58.895Z,16.80
2018-07-23T02:30:04.883Z,16.80
2018-07-23T02:36:10.455Z,16.90
2018-07-23T02:42:16.205Z,17.00
2018-07-23T02:48:21.819Z,17.00
2018-07-23T02:54:27.428Z,17.00
2018-07-23T03:00:33.032Z,17.00
2018-07-23T03:06:38.607Z,17.00
2018-07-23T03:12:44.160Z,17.00
2018-07-23T03:18:50.173Z,17.00
2018-07-23T03:24:55.853Z,16.90
2018-07-23T03:31:01.480Z,16.90
2018-07-23T03:37:07.041Z,16.90
2018-07-23T03:43:12.689Z,16.90
2018-07-23T03:49:18.267Z,16.90
2018-07-23T03:55:23.823Z,17.00
2018-07-23T04:01:29.411Z,17.00
2018-07-23T04:07:34.989Z,17.00
2018-07-23T04:19:45.712Z,17.00
2018-07-23T04:25:51.307Z,17.10
2018-07-23T04:32:04.995Z,17.20
2018-07-23T04:38:11.184Z,17.20
2018-07-23T04:44:16.771Z,17.20
2018-07-23T04:50:22.367Z,17.20
2018-07-23T04:56:27.957Z,17.30
2018-07-23T05:02:33.532Z,17.30
2018-07-23T05:08:39.150Z,17.40
2018-07-23T05:14:44.719Z,17.50
2018-07-23T05:20:50.297Z,17.60
2018-07-23T05:26:55.893Z,17.70
2018-07-23T05:33:01.479Z,17.80
2018-07-23T05:39:10.317Z,17.90
2018-07-23T05:45:15.931Z,18.00
2018-07-23T05:51:21.493Z,18.10
2018-07-23T05:57:27.104Z,18.20
2018-07-23T06:03:32.731Z,18.30
2018-07-23T06:09:38.293Z,18.40
2018-07-23T06:15:43.864Z,18.20
2018-07-23T06:21:49.457Z,18.00
2018-07-23T06:27:55.258Z,18.00
2018-07-23T06:34:00.857Z,18.10
2018-07-23T06:40:08.438Z,18.30
2018-07-23T06:46:14.026Z,18.30
2018-07-23T06:52:19.621Z,18.40
2018-07-23T06:58:25.221Z,18.50
2018-07-23T07:04:30.779Z,18.50
2018-07-23T07:10:36.357Z,18.60
2018-07-23T07:16:41.951Z,18.70
2018-07-23T07:22:47.538Z,18.90
2018-07-23T07:28:53.144Z,19.20
2018-07-23T07:34:58.767Z,19.30
2018-07-23T07:41:04.397Z,19.10
2018-07-23T07:47:10.044Z,19.10
2018-07-23T07:53:15.610Z,19.30
2018-07-23T07:59:21.181Z,19.40
2018-07-23T08:05:26.761Z,20.00
2018-07-23T08:11:32.349Z,20.80
2018-07-23T08:17:37.941Z,21.20
2018-07-23T08:23:43.510Z,21.60
2018-07-23T08:29:49.182Z,21.90
2018-07-23T08:35:55.078Z,22.40
2018-07-23T08:42:01.665Z,23.00
2018-07-23T08:48:07.615Z,23.40
2018-07-23T08:54:13.550Z,24.00
2018-07-23T09:06:25.133Z,24.80
2018-07-23T09:12:30.989Z,24.70
2018-07-23T09:18:36.889Z,24.90
2018-07-23T09:24:43.200Z,25.30
2018-07-23T09:30:51.551Z,25.50
2018-07-23T09:36:57.350Z,25.70
2018-07-23T09:43:04.053Z,26.20
2018-07-23T09:49:10.001Z,26.30
2018-07-23T09:55:16.010Z,26.60
2018-07-23T10:01:21.969Z,27.10
2018-07-23T10:07:27.935Z,27.20
2018-07-23T10:13:33.967Z,27.70
2018-07-23T10:19:40.452Z,27.90
2018-07-23T10:25:46.473Z,28.70
2018-07-23T10:31:52.557Z,28.60
2018-07-23T10:37:58.587Z,28.40
2018-07-23T10:44:04.591Z,28.50
2018-07-23T10:50:10.633Z,29.00
2018-07-23T10:56:16.569Z,29.40
2018-07-23T11:02:22.489Z,29.50
2018-07-23T11:08:28.419Z,29.60
2018-07-23T11:14:34.328Z,29.30
2018-07-23T11:20:40.298Z,29.80
2018-07-23T11:26:46.367Z,30.30
2018-07-23T11:32:52.867Z,30.80
2018-07-23T11:38:58.855Z,31.60
2018-07-23T11:45:04.904Z,32.40
2018-07-23T11:51:10.937Z,33.20
2018-07-23T11:57:16.868Z,32.80
2018-07-23T12:03:22.878Z,32.00
2018-07-23T12:09:28.803Z,31.90
2018-07-23T12:15:34.745Z,32.60
2018-07-23T12:21:40.813Z,32.10
2018-07-23T12:33:52.300Z,32.20
2018-07-23T12:39:58.330Z,33.50
2018-07-23T12:46:04.136Z,34.20
2018-07-23T12:52:10.109Z,34.90
2018-07-23T12:58:16.150Z,34.70
2018-07-23T13:04:22.059Z,34.70
2018-07-23T13:10:28.014Z,35.40
2018-07-23T13:16:33.989Z,34.60
2018-07-23T13:22:39.924Z,33.70
2018-07-23T13:28:45.949Z,34.10
2018-07-23T13:34:51.888Z,35.10
2018-07-23T13:40:57.878Z,34.80
2018-07-23T13:47:03.964Z,36.30
2018-07-23T13:53:09.997Z,37.20
2018-07-23T13:59:16.056Z,37.20
2018-07-23T14:05:22.062Z,37.10
2018-07-23T14:11:27.850Z,35.70
2018-07-23T14:17:33.986Z,34.40
2018-07-23T14:23:39.616Z,34.10
2018-07-23T14:29:45.689Z,34.60
2018-07-23T14:35:51.661Z,36.40
2018-07-23T14:41:57.631Z,37.60
2018-07-23T14:48:03.785Z,37.30
2018-07-23T14:54:09.761Z,36.70
2018-07-23T15:00:15.722Z,35.20
2018-07-23T15:06:21.600Z,35.90
2018-07-23T15:12:27.557Z,37.30
2018-07-23T15:18:33.476Z,35.90
2018-07-23T15:24:39.438Z,34.10
2018-07-23T15:30:45.515Z,34.60
2018-07-23T15:36:51.437Z,33.70
2018-07-23T15:42:57.385Z,33.20
2018-07-23T15:49:03.334Z,33.00
2018-07-23T15:55:09.409Z,33.60
2018-07-23T16:01:15.278Z,35.20
2018-07-23T16:07:21.245Z,36.10
2018-07-23T16:13:27.151Z,36.50
2018-07-23T16:19:32.932Z,37.00
2018-07-23T16:25:39.111Z,36.70
2018-07-23T16:31:45.080Z,36.10
2018-07-23T16:37:51.011Z,35.60
2018-07-23T16:43:56.992Z,35.70
2018-07-23T16:50:02.957Z,36.10
2018-07-23T16:56:08.927Z,36.80
2018-07-23T17:02:14.883Z,37.50
2018-07-23T17:08:20.808Z,37.20
2018-07-23T17:14:26.695Z,37.50
2018-07-23T17:20:32.671Z,38.10
2018-07-23T17:26:38.676Z,38.50
2018-07-23T17:32:44.446Z,38.30
2018-07-23T17:38:50.067Z,37.70
2018-07-23T17:44:55.709Z,37.00
2018-07-23T17:51:01.546Z,36.40
2018-07-23T17:57:07.484Z,35.30
2018-07-23T18:03:13.485Z,35.70
2018-07-23T18:09:19.384Z,35.00
2018-07-23T18:15:25.303Z,33.60
2018-07-23T18:21:31.211Z,33.20
2018-07-23T18:27:37.035Z,32.50
2018-07-23T18:33:43.040Z,32.00
2018-07-23T18:39:48.862Z,31.50
2018-07-23T18:45:54.535Z,31.50
2018-07-23T18:52:00.170Z,30.70
2018-07-23T18:58:05.781Z,29.60
2018-07-23T19:04:11.825Z,28.50
2018-07-23T19:10:17.762Z,27.60
2018-07-23T19:16:23.719Z,27.10
2018-07-23T19:22:29.826Z,26.60
2018-07-23T19:28:35.750Z,26.20
2018-07-23T19:34:41.619Z,25.80
2018-07-23T19:40:47.599Z,25.50
2018-07-23T19:46:53.429Z,25.10
2018-07-23T19:52:59.359Z,24.60
2018-07-23T19:59:05.309Z,24.20
2018-07-23T20:05:11.256Z,23.90
2018-07-23T20:11:17.176Z,23.60
2018-07-23T20:17:23.107Z,23.30
2018-07-23T20:23:29.010Z,23.10
2018-07-23T20:29:34.857Z,22.80
2018-07-23T20:35:40.377Z,22.70
2018-07-23T20:41:45.985Z,22.50
2018-07-23T20:47:51.526Z,22.40
2018-07-23T20:53:57.088Z,22.20
2018-07-23T21:00:02.727Z,22.20
2018-07-23T21:06:09.172Z,22.00
2018-07-23T21:12:15.106Z,21.90
2018-07-23T21:18:20.729Z,21.80
2018-07-23T21:24:26.332Z,21.60
2018-07-23T21:30:31.953Z,21.60
2018-07-23T21:36:37.505Z,21.50
2018-07-23T21:42:43.081Z,21.40
2018-07-23T21:48:48.958Z,21.30
2018-07-23T21:54:54.626Z,21.20
2018-07-23T22:01:00.230Z,21.00
2018-07-23T22:07:05.873Z,20.90
2018-07-23T22:13:11.454Z,20.70
2018-07-23T22:19:17.069Z,20.50
2018-07-23T22:25:22.676Z,20.30
2018-07-23T22:31:28.248Z,20.20
2018-07-23T22:37:33.865Z,20.10
2018-07-23T22:43:39.446Z,20.00
2018-07-23T22:49:45.438Z,20.00
2018-07-23T22:55:51.362Z,19.90
2018-07-23T23:01:57.203Z,19.90
2018-07-23T23:08:02.967Z,19.80
2018-07-23T23:14:08.602Z,19.70
2018-07-23T23:20:14.253Z,19.70
2018-07-23T23:26:19.845Z,19.60
2018-07-23T23:32:25.444Z,19.50
2018-07-23T23:38:31.085Z,19.40
2018-07-23T23:44:36.683Z,19.30
2018-07-23T23:50:42.237Z,19.20
2018-07-23T23:56:47.783Z,19.20
